createdAt,value
2022-11-01T00:00:24.962Z,101263.30
2022-11-01T00:05:32.074Z,101258.66
2022-11-01T00:10:39.157Z,101255.48
2022-11-01T00:15:46.350Z,101253.13
2022-11-01T00:20:53.568Z,101254.71
2022-11-01T00:26:03.433Z,101254.46
2022-11-01T00:31:12.734Z,101254.06
2022-11-01T00:36:20.204Z,101251.94
2022-11-01T00:41:27.550Z,101246.42
2022-11-01T00:46:35.042Z,101238.63
2022-11-01T00:51:42.301Z,101233.38
2022-11-01T00:56:49.449Z,101233.22
2022-11-01T01:01:56.649Z,101224.60
2022-11-01T01:07:03.909Z,101213.11
2022-11-01T01:12:11.029Z,101202.71
2022-11-01T01:17:18.723Z,101201.59
2022-11-01T01:22:26.009Z,101203.38
2022-11-01T01:33:18.566Z,101205.05
2022-11-01T01:38:25.747Z,101198.91
2022-11-01T01:43:44.448Z,101193.34
2022-11-01T01:48:58.507Z,101184.13
2022-11-01T01:54:05.808Z,101177.25
2022-11-01T01:59:14.136Z,101176.33
2022-11-01T02:04:27.009Z,101178.31
2022-11-01T02:09:34.690Z,101180.29
2022-11-01T02:14:43.452Z,101175.43
2022-11-01T02:20:17.269Z,101176.90
2022-11-01T02:25:44.979Z,101169.70
2022-11-01T02:31:04.976Z,101164.81
2022-11-01T02:36:19.175Z,101159.56
2022-11-01T02:41:33.458Z,101160.60
2022-11-01T02:47:00.131Z,101156.33
2022-11-01T02:52:09.803Z,101158.53
2022-11-01T02:57:30.289Z,101165.77
2022-11-01T03:02:42.046Z,101172.73
2022-11-01T03:07:52.951Z,101178.81
2022-11-01T03:13:11.717Z,101179.15
2022-11-01T03:18:27.530Z,101184.05
2022-11-01T03:23:45.977Z,101186.70
2022-11-01T03:34:13.174Z,101176.98
2022-11-01T03:39:26.511Z,101182.72
2022-11-01T03:44:40.103Z,101183.78
2022-11-01T03:49:47.134Z,101159.52
2022-11-01T03:54:54.273Z,101151.37
2022-11-01T04:00:01.430Z,101152.48
2022-11-01T04:05:10.463Z,101155.09
2022-11-01T04:10:17.520Z,101160.58
2022-11-01T04:15:43.624Z,101171.28
2022-11-01T04:20:51.546Z,101172.45
2022-11-01T04:25:57.260Z,101154.23
2022-11-01T04:31:04.528Z,101153.40
2022-11-01T04:36:12.489Z,101147.71
2022-11-01T04:41:22.721Z,101161.39
2022-11-01T04:46:32.715Z,101146.99
2022-11-01T04:51:41.628Z,101131.56
2022-11-01T04:56:48.873Z,101140.11
2022-11-01T05:01:56.234Z,101134.91
2022-11-01T05:07:03.275Z,101114.11
2022-11-01T05:12:11.062Z,101079.65
2022-11-01T05:17:18.168Z,101052.35
2022-11-01T05:22:25.403Z,101050.77
2022-11-01T05:27:33.007Z,101063.04
2022-11-01T05:32:40.198Z,101079.27
2022-11-01T05:37:47.170Z,101061.63
2022-11-01T05:42:54.684Z,101060.89
2022-11-01T05:48:05.971Z,101057.36
2022-11-01T05:53:13.153Z,101056.98
2022-11-01T05:58:20.131Z,101069.55
2022-11-01T06:03:27.765Z,101062.19
2022-11-01T06:08:34.788Z,101040.05
2022-11-01T06:13:41.763Z,101046.09
2022-11-01T06:18:48.706Z,101055.67
2022-11-01T06:23:55.662Z,101062.48
2022-11-01T06:29:04.924Z,101045.90
2022-11-01T06:34:12.131Z,101026.92
2022-11-01T06:39:20.157Z,101015.55
2022-11-01T06:44:27.408Z,100993.67
2022-11-01T06:49:34.870Z,100992.64
2022-11-01T06:54:41.954Z,100976.59
2022-11-01T06:59:48.985Z,100960.88
2022-11-01T07:04:56.042Z,100955.20
2022-11-01T07:10:03.476Z,100961.48
2022-11-01T07:15:12.535Z,100954.13
2022-11-01T07:20:19.640Z,100962.45
2022-11-01T07:25:26.786Z,100953.29
2022-11-01T07:30:34.679Z,100937.27
2022-11-01T07:35:44.685Z,100936.25
2022-11-01T07:40:53.382Z,100939.87
2022-11-01T07:46:04.471Z,100941.50
2022-11-01T07:51:12.148Z,100961.02
2022-11-01T07:56:19.119Z,100974.09
2022-11-01T08:01:26.258Z,101011.05
2022-11-01T08:06:33.405Z,101004.45
2022-11-01T08:11:40.589Z,100992.63
2022-11-01T08:16:55.846Z,100997.71
2022-11-01T08:22:03.446Z,100998.13
2022-11-01T08:27:10.548Z,101004.81
2022-11-01T08:32:20.538Z,101008.95
2022-11-01T08:37:27.543Z,101006.94
2022-11-01T08:42:34.425Z,101022.50
2022-11-01T08:47:41.829Z,101036.73
2022-11-01T08:52:48.724Z,101040.23
2022-11-01T08:58:04.656Z,101045.20
2022-11-01T09:03:14.068Z,101049.92
2022-11-01T09:08:23.809Z,101053.73
2022-11-01T09:13:35.161Z,101059.04
2022-11-01T09:18:40.894Z,101053.23
2022-11-01T09:23:48.141Z,101051.77
2022-11-01T09:28:55.249Z,101045.94
2022-11-01T09:34:02.670Z,101043.67
2022-11-01T09:39:09.632Z,101035.45
2022-11-01T09:44:20.256Z,101035.16
2022-11-01T09:49:31.499Z,101025.73
2022-11-01T09:54:38.699Z,100997.07
2022-11-01T09:59:54.362Z,100992.63
2022-11-01T10:05:27.434Z,100984.49
2022-11-01T10:10:41.491Z,100979.31
2022-11-01T10:16:03.738Z,100970.48
2022-11-01T10:21:16.561Z,100972.79
2022-11-01T10:26:27.971Z,100983.84
2022-11-01T10:31:42.448Z,100970.50
2022-11-01T10:36:52.222Z,100969.70
2022-11-01T10:42:03.789Z,100966.02
2022-11-01T10:47:17.158Z,100958.14
2022-11-01T10:52:29.032Z,100951.46
2022-11-01T10:57:42.539Z,100959.86
2022-11-01T11:02:53.538Z,100961.56
2022-11-01T11:08:05.170Z,100954.38
2022-11-01T11:13:15.415Z,100953.05
2022-11-01T11:18:28.654Z,100955.59
2022-11-01T11:23:40.810Z,100947.23
2022-11-01T11:28:51.252Z,100948.05
2022-11-01T11:34:02.265Z,100961.69
2022-11-01T11:39:24.625Z,100955.66
2022-11-01T11:44:48.282Z,100959.14
2022-11-01T11:49:59.932Z,100950.92
2022-11-01T11:55:26.772Z,100961.23
2022-11-01T12:00:39.430Z,100963.17
2022-11-01T12:05:57.716Z,100954.75
2022-11-01T12:11:10.074Z,100942.81
2022-11-01T12:16:25.543Z,100941.41
2022-11-01T12:21:37.594Z,100970.02
2022-11-01T12:26:45.725Z,100975.38
2022-11-01T12:31:55.063Z,100977.45
2022-11-01T12:37:08.671Z,100979.44
2022-11-01T12:42:20.598Z,100982.84
2022-11-01T12:47:32.516Z,100978.05
2022-11-01T12:52:47.675Z,100965.66
2022-11-01T12:57:57.332Z,100959.95
2022-11-01T13:03:21.800Z,100964.97
2022-11-01T13:08:37.509Z,100970.58
2022-11-01T13:13:51.637Z,100977.37
2022-11-01T13:19:03.405Z,100973.44
2022-11-01T13:24:21.198Z,100971.64
2022-11-01T13:29:36.985Z,100968.42
2022-11-01T13:34:52.475Z,100962.22
2022-11-01T13:40:12.427Z,100953.98
2022-11-01T13:45:41.776Z,100951.55
2022-11-01T13:51:06.097Z,100957.69
2022-11-01T13:56:20.412Z,100963.38
2022-11-01T14:01:36.616Z,100953.48
2022-11-01T14:06:45.196Z,100954.42
2022-11-01T14:11:55.061Z,100960.89
2022-11-01T14:17:40.796Z,100959.09
2022-11-01T14:22:47.877Z,100955.47
2022-11-01T14:28:23.920Z,100942.93
2022-11-01T14:33:30.939Z,100944.62
2022-11-01T14:38:44.198Z,100943.76
2022-11-01T14:43:53.446Z,100942.27
2022-11-01T14:49:06.635Z,100940.34
2022-11-01T14:54:20.416Z,100947.77
2022-11-01T14:59:29.504Z,100945.11
2022-11-01T15:04:43.555Z,100948.25
2022-11-01T15:10:00.724Z,100941.91
2022-11-01T15:15:14.641Z,100934.81
2022-11-01T15:20:22.798Z,100929.48
2022-11-01T15:25:30.462Z,100931.70
2022-11-01T15:30:37.558Z,100946.70
2022-11-01T15:35:44.619Z,100962.02
2022-11-01T15:40:53.270Z,100959.58
2022-11-01T15:46:02.588Z,100966.33
2022-11-01T15:51:20.259Z,100974.02
2022-11-01T15:56:43.279Z,100984.45
2022-11-01T16:01:52.081Z,100989.71
2022-11-01T16:07:04.551Z,100987.73
2022-11-01T16:12:20.707Z,100981.52
2022-11-01T16:17:38.838Z,100990.81
2022-11-01T16:22:48.636Z,101004.04
2022-11-01T16:28:05.025Z,101007.15
2022-11-01T16:33:20.623Z,101001.58
2022-11-01T16:38:39.277Z,101005.86
2022-11-01T16:43:47.000Z,101006.53
2022-11-01T16:48:58.751Z,101011.77
2022-11-01T16:54:05.612Z,101005.73
2022-11-01T16:59:28.132Z,101008.61
2022-11-01T17:04:35.128Z,101016.55
2022-11-01T17:09:42.474Z,101024.02
2022-11-01T17:14:49.457Z,101031.08
2022-11-01T17:20:01.825Z,101032.11
2022-11-01T17:25:15.335Z,101027.34
2022-11-01T17:30:23.363Z,101026.10
2022-11-01T17:35:28.825Z,101020.70
2022-11-01T17:40:37.109Z,101022.60
2022-11-01T17:45:44.186Z,101024.77
2022-11-01T17:50:51.374Z,101020.77
2022-11-01T17:56:00.449Z,101023.66
2022-11-01T18:01:08.824Z,101020.59
2022-11-01T18:06:15.874Z,101025.56
2022-11-01T18:11:38.291Z,101023.27
2022-11-01T18:16:49.972Z,101028.77
2022-11-01T18:22:07.367Z,101031.40
2022-11-01T18:27:17.268Z,101031.86
2022-11-01T18:32:33.395Z,101023.38
2022-11-01T18:37:46.121Z,101010.32
2022-11-01T18:42:55.036Z,101002.84
2022-11-01T18:48:09.483Z,101005.46
2022-11-01T18:53:18.418Z,101005.06
2022-11-01T18:58:27.932Z,101001.75
2022-11-01T19:03:35.147Z,101000.73
2022-11-01T19:08:42.425Z,101006.00
2022-11-01T19:13:50.671Z,101011.05
2022-11-01T19:18:57.732Z,101010.96
2022-11-01T19:24:11.105Z,101017.58
2022-11-01T19:29:32.649Z,101022.16
2022-11-01T19:34:46.513Z,101029.60
2022-11-01T19:40:06.082Z,101036.45
2022-11-01T19:45:46.035Z,101048.38
2022-11-01T19:51:07.147Z,101049.20
2022-11-01T19:56:18.277Z,101054.46
2022-11-01T20:01:35.884Z,101058.33
2022-11-01T20:06:48.718Z,101057.61
2022-11-01T20:11:56.195Z,101062.79
2022-11-01T20:17:03.126Z,101072.17
2022-11-01T20:22:10.214Z,101077.95
2022-11-01T20:27:18.578Z,101079.67
2022-11-01T20:32:25.541Z,101079.41
2022-11-01T20:37:32.918Z,101080.69
2022-11-01T20:42:40.001Z,101084.35
2022-11-01T20:47:47.045Z,101088.38
2022-11-01T20:52:54.077Z,101096.90
2022-11-01T20:58:01.395Z,101101.48
2022-11-01T21:03:15.896Z,101105.98
2022-11-01T21:08:25.912Z,101100.05
2022-11-01T21:13:35.195Z,101093.48
2022-11-01T21:18:45.947Z,101090.18
2022-11-01T21:23:52.847Z,101093.41
2022-11-01T21:29:03.582Z,101097.41
2022-11-01T21:34:25.775Z,101092.77
2022-11-01T21:39:33.836Z,101095.55
2022-11-01T21:44:43.148Z,101095.72
2022-11-01T21:49:50.780Z,101090.84
2022-11-01T21:54:59.009Z,101092.58
2022-11-01T22:00:06.983Z,101098.21
2022-11-01T22:05:13.972Z,101099.30
2022-11-01T22:10:21.247Z,101096.24
2022-11-01T22:15:27.538Z,101092.27
2022-11-01T22:20:34.431Z,101090.47
2022-11-01T22:25:41.296Z,101097.55
2022-11-01T22:30:48.201Z,101097.19
2022-11-01T22:35:55.653Z,101098.94
2022-11-01T22:41:10.316Z,101101.17
2022-11-01T22:46:21.751Z,101095.91
2022-11-01T22:51:38.798Z,101093.70
2022-11-01T22:56:45.829Z,101095.94
2022-11-01T23:02:17.265Z,101099.80
2022-11-01T23:07:32.462Z,101101.41
2022-11-01T23:12:57.613Z,101100.38
2022-11-01T23:18:13.729Z,101102.70
2022-11-01T23:23:22.394Z,101105.33
2022-11-01T23:28:30.056Z,101101.39
2022-11-01T23:33:41.039Z,101105.36
2022-11-01T23:38:49.825Z,101105.73
2022-11-01T23:43:59.551Z,101104.21
2022-11-01T23:49:15.600Z,101107.97
2022-11-01T23:54:30.120Z,101111.16
2022-11-01T23:59:38.005Z,101115.34
